sensor_id;sensor_type;location;lat;lon;timestamp;temperature;humidity
15083;DHT22;7640;53.116;6.878;2023-02-13T00:01:27;8.80;99.90
15083;DHT22;7640;53.116;6.878;2023-02-13T00:03:55;8.80;99.90
15083;DHT22;7640;53.116;6.878;2023-02-13T00:06:24;8.90;99.90
15083;DHT22;7640;53.116;6.878;2023-02-13T00:08:52;8.80;99.90
15083;DHT22;7640;53.116;6.878;2023-02-13T00:11:20;8.80;99.90
15083;DHT22;7640;53.116;6.878;2023-02-13T00:13:49;8.80;99.90
15083;DHT22;7640;53.116;6.878;2023-02-13T00:16:18;8.80;99.90
15083;DHT22;7640;53.116;6.878;2023-02-13T00:18:47;8.80;99.90
15083;DHT22;7640;53.116;6.878;2023-02-13T00:21:15;8.80;99.90
15083;DHT22;7640;53.116;6.878;2023-02-13T00:23:44;8.80;99.90
15083;DHT22;7640;53.116;6.878;2023-02-13T00:26:14;8.80;99.90
15083;DHT22;7640;53.116;6.878;2023-02-13T00:28:44;8.80;99.90
15083;DHT22;7640;53.116;6.878;2023-02-13T00:31:14;8.70;99.90
15083;DHT22;7640;53.116;6.878;2023-02-13T00:33:47;8.70;99.90
15083;DHT22;7640;53.116;6.878;2023-02-13T00:36:17;8.70;99.90
15083;DHT22;7640;53.116;6.878;2023-02-13T00:38:46;8.70;99.90
15083;DHT22;7640;53.116;6.878;2023-02-13T00:41:15;8.70;99.90
15083;DHT22;7640;53.116;6.878;2023-02-13T00:43:44;8.70;99.90
15083;DHT22;7640;53.116;6.878;2023-02-13T00:46:14;8.70;99.90
15083;DHT22;7640;53.116;6.878;2023-02-13T00:48:43;8.70;99.90
15083;DHT22;7640;53.116;6.878;2023-02-13T00:51:12;8.60;99.90
15083;DHT22;7640;53.116;6.878;2023-02-13T00:53:41;8.60;99.90
15083;DHT22;7640;53.116;6.878;2023-02-13T00:56:09;8.60;99.90
15083;DHT22;7640;53.116;6.878;2023-02-13T00:58:38;8.60;99.90
15083;DHT22;7640;53.116;6.878;2023-02-13T01:01:06;8.60;99.90
15083;DHT22;7640;53.116;6.878;2023-02-13T01:03:35;8.60;99.90
15083;DHT22;7640;53.116;6.878;2023-02-13T01:06:04;8.60;99.90
15083;DHT22;7640;53.116;6.878;2023-02-13T01:08:38;8.60;99.90
15083;DHT22;7640;53.116;6.878;2023-02-13T01:11:07;8.60;99.90
15083;DHT22;7640;53.116;6.878;2023-02-13T01:13:36;8.60;99.90
15083;DHT22;7640;53.116;6.878;2023-02-13T01:16:05;8.60;99.90
15083;DHT22;7640;53.116;6.878;2023-02-13T01:18:33;8.70;99.90
15083;DHT22;7640;53.116;6.878;2023-02-13T01:21:06;8.60;99.90
15083;DHT22;7640;53.116;6.878;2023-02-13T01:23:37;8.70;99.90
15083;DHT22;7640;53.116;6.878;2023-02-13T01:26:07;8.70;99.90
15083;DHT22;7640;53.116;6.878;2023-02-13T01:28:36;8.70;99.90
15083;DHT22;7640;53.116;6.878;2023-02-13T01:31:05;8.70;99.90
15083;DHT22;7640;53.116;6.878;2023-02-13T01:33:34;8.70;99.90
15083;DHT22;7640;53.116;6.878;2023-02-13T01:36:05;8.70;99.90
15083;DHT22;7640;53.116;6.878;2023-02-13T01:38:36;8.70;99.90
15083;DHT22;7640;53.116;6.878;2023-02-13T01:41:06;8.70;99.90
15083;DHT22;7640;53.116;6.878;2023-02-13T01:43:49;8.70;99.90
15083;DHT22;7640;53.116;6.878;2023-02-13T01:46:22;8.70;99.90
15083;DHT22;7640;53.116;6.878;2023-02-13T01:48:58;8.70;99.90
15083;DHT22;7640;53.116;6.878;2023-02-13T01:51:32;8.70;99.90
15083;DHT22;7640;53.116;6.878;2023-02-13T01:54:06;8.70;99.90
15083;DHT22;7640;53.116;6.878;2023-02-13T01:56:38;8.70;99.90
15083;DHT22;7640;53.116;6.878;2023-02-13T01:59:10;8.70;99.90
15083;DHT22;7640;53.116;6.878;2023-02-13T02:01:40;8.70;99.90
15083;DHT22;7640;53.116;6.878;2023-02-13T02:04:11;8.70;99.90
15083;DHT22;7640;53.116;6.878;2023-02-13T02:06:44;8.70;99.90
15083;DHT22;7640;53.116;6.878;2023-02-13T02:09:18;8.70;99.90
15083;DHT22;7640;53.116;6.878;2023-02-13T02:11:52;8.70;99.90
15083;DHT22;7640;53.116;6.878;2023-02-13T02:14:27;8.70;99.90
15083;DHT22;7640;53.116;6.878;2023-02-13T02:16:56;8.70;99.90
15083;DHT22;7640;53.116;6.878;2023-02-13T02:19:32;8.70;99.90
15083;DHT22;7640;53.116;6.878;2023-02-13T02:22:24;8.70;99.90
15083;DHT22;7640;53.116;6.878;2023-02-13T02:25:22;8.70;99.90
15083;DHT22;7640;53.116;6.878;2023-02-13T02:31:47;8.60;99.90
15083;DHT22;7640;53.116;6.878;2023-02-13T02:34:36;8.60;99.90
15083;DHT22;7640;53.116;6.878;2023-02-13T02:37:22;8.60;99.90
15083;DHT22;7640;53.116;6.878;2023-02-13T02:40:12;8.60;99.90
15083;DHT22;7640;53.116;6.878;2023-02-13T02:42:59;8.60;99.90
15083;DHT22;7640;53.116;6.878;2023-02-13T02:45:39;8.60;99.90
15083;DHT22;7640;53.116;6.878;2023-02-13T02:48:21;8.50;99.90
15083;DHT22;7640;53.116;6.878;2023-02-13T02:51:18;8.60;99.90
15083;DHT22;7640;53.116;6.878;2023-02-13T02:54:00;8.50;99.90
15083;DHT22;7640;53.116;6.878;2023-02-13T02:56:56;8.50;99.90
15083;DHT22;7640;53.116;6.878;2023-02-13T02:59:28;8.50;99.90
15083;DHT22;7640;53.116;6.878;2023-02-13T03:02:17;8.50;99.90
15083;DHT22;7640;53.116;6.878;2023-02-13T03:05:16;8.50;99.90
15083;DHT22;7640;53.116;6.878;2023-02-13T03:08:05;8.50;99.90
15083;DHT22;7640;53.116;6.878;2023-02-13T03:10:35;8.50;99.90
15083;DHT22;7640;53.116;6.878;2023-02-13T03:13:36;8.50;99.90
15083;DHT22;7640;53.116;6.878;2023-02-13T03:16:12;8.50;99.90
15083;DHT22;7640;53.116;6.878;2023-02-13T03:19:02;8.50;99.90
15083;DHT22;7640;53.116;6.878;2023-02-13T03:21:55;8.50;99.90
15083;DHT22;7640;53.116;6.878;2023-02-13T03:24:50;8.50;99.90
15083;DHT22;7640;53.116;6.878;2023-02-13T03:27:30;8.50;99.90
15083;DHT22;7640;53.116;6.878;2023-02-13T03:30:25;8.50;99.90
15083;DHT22;7640;53.116;6.878;2023-02-13T03:33:18;8.50;99.90
15083;DHT22;7640;53.116;6.878;2023-02-13T03:36:00;8.50;99.90
15083;DHT22;7640;53.116;6.878;2023-02-13T03:38:54;8.50;99.90
15083;DHT22;7640;53.116;6.878;2023-02-13T03:41:30;8.50;99.90
15083;DHT22;7640;53.116;6.878;2023-02-13T03:44:09;8.50;99.90
15083;DHT22;7640;53.116;6.878;2023-02-13T03:46:43;8.50;99.90
15083;DHT22;7640;53.116;6.878;2023-02-13T03:49:17;8.50;99.90
15083;DHT22;7640;53.116;6.878;2023-02-13T03:52:10;8.50;99.90
15083;DHT22;7640;53.116;6.878;2023-02-13T03:54:49;8.50;99.90
15083;DHT22;7640;53.116;6.878;2023-02-13T03:57:40;8.50;99.90
15083;DHT22;7640;53.116;6.878;2023-02-13T04:00:30;8.50;99.90
15083;DHT22;7640;53.116;6.878;2023-02-13T04:03:10;8.40;99.90
15083;DHT22;7640;53.116;6.878;2023-02-13T04:05:44;8.40;99.90
15083;DHT22;7640;53.116;6.878;2023-02-13T04:08:14;8.40;99.90
15083;DHT22;7640;53.116;6.878;2023-02-13T04:10:49;8.40;99.90
15083;DHT22;7640;53.116;6.878;2023-02-13T04:13:26;8.40;99.90
15083;DHT22;7640;53.116;6.878;2023-02-13T04:16:02;8.40;99.90
15083;DHT22;7640;53.116;6.878;2023-02-13T04:18:34;8.40;99.90
15083;DHT22;7640;53.116;6.878;2023-02-13T04:21:05;8.40;99.90
15083;DHT22;7640;53.116;6.878;2023-02-13T04:23:34;8.40;99.90
15083;DHT22;7640;53.116;6.878;2023-02-13T04:26:07;8.40;99.90
15083;DHT22;7640;53.116;6.878;2023-02-13T04:28:41;8.40;99.90
15083;DHT22;7640;53.116;6.878;2023-02-13T04:31:10;8.40;99.90
15083;DHT22;7640;53.116;6.878;2023-02-13T04:33:39;8.40;99.90
15083;DHT22;7640;53.116;6.878;2023-02-13T04:36:07;8.40;99.90
15083;DHT22;7640;53.116;6.878;2023-02-13T04:38:36;8.40;99.90
15083;DHT22;7640;53.116;6.878;2023-02-13T04:41:06;8.40;99.90
15083;DHT22;7640;53.116;6.878;2023-02-13T04:43:34;8.50;99.90
15083;DHT22;7640;53.116;6.878;2023-02-13T04:46:03;8.40;99.90
15083;DHT22;7640;53.116;6.878;2023-02-13T04:48:32;8.50;99.90
15083;DHT22;7640;53.116;6.878;2023-02-13T04:51:00;8.50;99.90
15083;DHT22;7640;53.116;6.878;2023-02-13T04:53:29;8.50;99.90
15083;DHT22;7640;53.116;6.878;2023-02-13T04:55:57;8.50;99.90
15083;DHT22;7640;53.116;6.878;2023-02-13T04:58:27;8.50;99.90
15083;DHT22;7640;53.116;6.878;2023-02-13T05:00:55;8.50;99.90
15083;DHT22;7640;53.116;6.878;2023-02-13T05:03:24;8.40;99.90
15083;DHT22;7640;53.116;6.878;2023-02-13T05:05:53;8.40;99.90
15083;DHT22;7640;53.116;6.878;2023-02-13T05:08:21;8.40;99.90
15083;DHT22;7640;53.116;6.878;2023-02-13T05:10:49;8.40;99.90
15083;DHT22;7640;53.116;6.878;2023-02-13T05:13:18;8.40;99.90
15083;DHT22;7640;53.116;6.878;2023-02-13T05:15:48;8.40;99.90
15083;DHT22;7640;53.116;6.878;2023-02-13T05:18:18;8.40;99.90
15083;DHT22;7640;53.116;6.878;2023-02-13T05:20:47;8.40;99.90
15083;DHT22;7640;53.116;6.878;2023-02-13T05:23:35;8.40;99.90
15083;DHT22;7640;53.116;6.878;2023-02-13T05:26:03;8.40;99.90
15083;DHT22;7640;53.116;6.878;2023-02-13T05:28:32;8.40;99.90
15083;DHT22;7640;53.116;6.878;2023-02-13T05:31:19;8.40;99.90
15083;DHT22;7640;53.116;6.878;2023-02-13T05:33:47;8.40;99.90
15083;DHT22;7640;53.116;6.878;2023-02-13T05:36:16;8.40;99.90
15083;DHT22;7640;53.116;6.878;2023-02-13T05:38:44;8.40;99.90
15083;DHT22;7640;53.116;6.878;2023-02-13T05:41:12;8.40;99.90
15083;DHT22;7640;53.116;6.878;2023-02-13T05:43:41;8.40;99.90
15083;DHT22;7640;53.116;6.878;2023-02-13T05:46:09;8.40;99.90
15083;DHT22;7640;53.116;6.878;2023-02-13T05:48:39;8.40;99.90
15083;DHT22;7640;53.116;6.878;2023-02-13T05:51:08;8.40;99.90
15083;DHT22;7640;53.116;6.878;2023-02-13T05:53:36;8.40;99.90
15083;DHT22;7640;53.116;6.878;2023-02-13T05:56:05;8.40;99.90
15083;DHT22;7640;53.116;6.878;2023-02-13T05:58:34;8.40;99.90
15083;DHT22;7640;53.116;6.878;2023-02-13T06:01:03;8.40;99.90
15083;DHT22;7640;53.116;6.878;2023-02-13T06:03:32;8.30;99.90
15083;DHT22;7640;53.116;6.878;2023-02-13T06:06:02;8.30;99.90
15083;DHT22;7640;53.116;6.878;2023-02-13T06:08:31;8.30;99.90
15083;DHT22;7640;53.116;6.878;2023-02-13T06:10:59;8.30;99.90
15083;DHT22;7640;53.116;6.878;2023-02-13T06:13:28;8.30;99.90
15083;DHT22;7640;53.116;6.878;2023-02-13T06:15:57;8.30;99.90
15083;DHT22;7640;53.116;6.878;2023-02-13T06:18:25;8.30;99.90
15083;DHT22;7640;53.116;6.878;2023-02-13T06:20:54;8.30;99.90
15083;DHT22;7640;53.116;6.878;2023-02-13T06:23:24;8.30;99.90
15083;DHT22;7640;53.116;6.878;2023-02-13T06:25:52;8.30;99.90
15083;DHT22;7640;53.116;6.878;2023-02-13T06:28:20;8.30;99.90
15083;DHT22;7640;53.116;6.878;2023-02-13T06:30:49;8.30;99.90
15083;DHT22;7640;53.116;6.878;2023-02-13T06:33:17;8.20;99.90
15083;DHT22;7640;53.116;6.878;2023-02-13T06:35:46;8.20;99.90
15083;DHT22;7640;53.116;6.878;2023-02-13T06:38:15;8.30;99.90
15083;DHT22;7640;53.116;6.878;2023-02-13T06:40:46;8.20;99.90
15083;DHT22;7640;53.116;6.878;2023-02-13T06:43:15;8.20;99.90
15083;DHT22;7640;53.116;6.878;2023-02-13T06:45:44;8.20;99.90
15083;DHT22;7640;53.116;6.878;2023-02-13T06:48:14;8.20;99.90
15083;DHT22;7640;53.116;6.878;2023-02-13T06:50:43;8.30;99.90
15083;DHT22;7640;53.116;6.878;2023-02-13T06:53:11;8.20;99.90
15083;DHT22;7640;53.116;6.878;2023-02-13T06:55:42;8.20;99.90
15083;DHT22;7640;53.116;6.878;2023-02-13T06:58:12;8.20;99.90
15083;DHT22;7640;53.116;6.878;2023-02-13T07:00:40;8.20;99.90
15083;DHT22;7640;53.116;6.878;2023-02-13T07:03:09;8.20;99.90
15083;DHT22;7640;53.116;6.878;2023-02-13T07:05:38;8.20;99.90
15083;DHT22;7640;53.116;6.878;2023-02-13T07:08:08;8.20;99.90
15083;DHT22;7640;53.116;6.878;2023-02-13T07:10:36;8.20;99.90
15083;DHT22;7640;53.116;6.878;2023-02-13T07:13:05;8.20;99.90
15083;DHT22;7640;53.116;6.878;2023-02-13T07:15:36;8.20;99.90
15083;DHT22;7640;53.116;6.878;2023-02-13T07:18:05;8.20;99.90
15083;DHT22;7640;53.116;6.878;2023-02-13T07:20:34;8.20;99.90
15083;DHT22;7640;53.116;6.878;2023-02-13T07:23:04;8.20;99.90
15083;DHT22;7640;53.116;6.878;2023-02-13T07:25:33;8.20;99.90
15083;DHT22;7640;53.116;6.878;2023-02-13T07:28:02;8.20;99.90
15083;DHT22;7640;53.116;6.878;2023-02-13T07:30:31;8.20;99.90
15083;DHT22;7640;53.116;6.878;2023-02-13T07:33:03;8.30;99.90
15083;DHT22;7640;53.116;6.878;2023-02-13T07:35:32;8.30;99.90
15083;DHT22;7640;53.116;6.878;2023-02-13T07:38:02;8.30;99.90
15083;DHT22;7640;53.116;6.878;2023-02-13T07:40:31;8.30;99.90
15083;DHT22;7640;53.116;6.878;2023-02-13T07:43:00;8.30;99.90
15083;DHT22;7640;53.116;6.878;2023-02-13T07:45:28;8.30;99.90
15083;DHT22;7640;53.116;6.878;2023-02-13T07:47:57;8.30;99.90
15083;DHT22;7640;53.116;6.878;2023-02-13T07:50:28;8.40;99.90
15083;DHT22;7640;53.116;6.878;2023-02-13T07:52:58;8.40;99.90
15083;DHT22;7640;53.116;6.878;2023-02-13T07:55:27;8.40;99.90
15083;DHT22;7640;53.116;6.878;2023-02-13T07:57:57;8.40;99.90
15083;DHT22;7640;53.116;6.878;2023-02-13T08:00:27;8.40;99.90
15083;DHT22;7640;53.116;6.878;2023-02-13T08:02:57;8.40;99.90
15083;DHT22;7640;53.116;6.878;2023-02-13T08:05:28;8.40;99.90
15083;DHT22;7640;53.116;6.878;2023-02-13T08:07:58;8.40;99.90
15083;DHT22;7640;53.116;6.878;2023-02-13T08:10:26;8.40;99.90
15083;DHT22;7640;53.116;6.878;2023-02-13T08:13:13;8.40;99.90
15083;DHT22;7640;53.116;6.878;2023-02-13T08:15:42;8.50;99.90
15083;DHT22;7640;53.116;6.878;2023-02-13T08:18:10;8.50;99.90
15083;DHT22;7640;53.116;6.878;2023-02-13T08:20:40;8.50;99.90
15083;DHT22;7640;53.116;6.878;2023-02-13T08:23:09;8.50;99.90
15083;DHT22;7640;53.116;6.878;2023-02-13T08:25:38;8.50;99.90
15083;DHT22;7640;53.116;6.878;2023-02-13T08:28:07;8.50;99.90
15083;DHT22;7640;53.116;6.878;2023-02-13T08:30:35;8.60;99.90
15083;DHT22;7640;53.116;6.878;2023-02-13T08:33:04;8.60;99.90
15083;DHT22;7640;53.116;6.878;2023-02-13T08:35:32;8.60;99.90
15083;DHT22;7640;53.116;6.878;2023-02-13T08:38:03;8.60;99.90
15083;DHT22;7640;53.116;6.878;2023-02-13T08:40:32;8.70;99.90
15083;DHT22;7640;53.116;6.878;2023-02-13T08:43:01;8.70;99.90
15083;DHT22;7640;53.116;6.878;2023-02-13T08:45:31;8.70;99.90
15083;DHT22;7640;53.116;6.878;2023-02-13T08:48:00;8.70;99.90
15083;DHT22;7640;53.116;6.878;2023-02-13T08:50:30;8.80;99.90
15083;DHT22;7640;53.116;6.878;2023-02-13T08:53:02;8.80;99.90
15083;DHT22;7640;53.116;6.878;2023-02-13T08:55:31;8.80;99.90
15083;DHT22;7640;53.116;6.878;2023-02-13T08:58:00;8.80;99.90
15083;DHT22;7640;53.116;6.878;2023-02-13T09:00:29;8.80;99.90
15083;DHT22;7640;53.116;6.878;2023-02-13T09:02:59;8.80;99.90
15083;DHT22;7640;53.116;6.878;2023-02-13T09:05:30;8.80;99.90
15083;DHT22;7640;53.116;6.878;2023-02-13T09:07:59;8.80;99.90
15083;DHT22;7640;53.116;6.878;2023-02-13T09:10:31;8.80;99.90
15083;DHT22;7640;53.116;6.878;2023-02-13T09:13:00;8.80;99.90
15083;DHT22;7640;53.116;6.878;2023-02-13T09:15:28;8.80;99.90
15083;DHT22;7640;53.116;6.878;2023-02-13T09:17:57;8.90;99.90
15083;DHT22;7640;53.116;6.878;2023-02-13T09:20:25;8.90;99.90
15083;DHT22;7640;53.116;6.878;2023-02-13T09:22:54;8.90;99.90
15083;DHT22;7640;53.116;6.878;2023-02-13T09:25:23;8.90;99.90
15083;DHT22;7640;53.116;6.878;2023-02-13T09:27:53;9.00;99.90
15083;DHT22;7640;53.116;6.878;2023-02-13T09:30:22;9.00;99.90
15083;DHT22;7640;53.116;6.878;2023-02-13T09:32:51;9.00;99.90
15083;DHT22;7640;53.116;6.878;2023-02-13T09:35:21;9.00;99.90
15083;DHT22;7640;53.116;6.878;2023-02-13T09:37:50;9.10;99.90
15083;DHT22;7640;53.116;6.878;2023-02-13T09:40:24;9.10;99.90
15083;DHT22;7640;53.116;6.878;2023-02-13T09:43:06;9.10;99.90
15083;DHT22;7640;53.116;6.878;2023-02-13T09:45:41;9.20;99.90
15083;DHT22;7640;53.116;6.878;2023-02-13T09:48:17;9.20;99.90
15083;DHT22;7640;53.116;6.878;2023-02-13T09:50:49;9.10;99.90
15083;DHT22;7640;53.116;6.878;2023-02-13T09:53:22;9.20;99.90
15083;DHT22;7640;53.116;6.878;2023-02-13T09:55:59;9.20;99.90
15083;DHT22;7640;53.116;6.878;2023-02-13T09:58:40;9.20;99.90
15083;DHT22;7640;53.116;6.878;2023-02-13T10:01:28;9.20;99.90
15083;DHT22;7640;53.116;6.878;2023-02-13T10:04:16;9.20;99.90
15083;DHT22;7640;53.116;6.878;2023-02-13T10:06:57;9.20;99.90
15083;DHT22;7640;53.116;6.878;2023-02-13T10:09:39;9.30;99.90
15083;DHT22;7640;53.116;6.878;2023-02-13T10:15:20;9.40;99.90
15083;DHT22;7640;53.116;6.878;2023-02-13T10:17:58;9.40;99.90
15083;DHT22;7640;53.116;6.878;2023-02-13T10:20:33;9.40;99.90
15083;DHT22;7640;53.116;6.878;2023-02-13T10:23:15;9.50;99.90
15083;DHT22;7640;53.116;6.878;2023-02-13T10:25:51;9.50;99.90
15083;DHT22;7640;53.116;6.878;2023-02-13T10:28:35;9.50;99.90
15083;DHT22;7640;53.116;6.878;2023-02-13T10:31:09;9.60;99.90
15083;DHT22;7640;53.116;6.878;2023-02-13T10:33:46;9.50;99.90
15083;DHT22;7640;53.116;6.878;2023-02-13T10:36:20;9.50;99.90
15083;DHT22;7640;53.116;6.878;2023-02-13T10:38:55;9.50;99.90
15083;DHT22;7640;53.116;6.878;2023-02-13T10:41:36;9.50;99.90
15083;DHT22;7640;53.116;6.878;2023-02-13T10:44:19;9.50;99.90
15083;DHT22;7640;53.116;6.878;2023-02-13T10:47:02;9.50;99.90
15083;DHT22;7640;53.116;6.878;2023-02-13T10:49:54;9.60;99.90
15083;DHT22;7640;53.116;6.878;2023-02-13T10:52:38;9.60;99.90
15083;DHT22;7640;53.116;6.878;2023-02-13T10:58:19;9.70;99.90
15083;DHT22;7640;53.116;6.878;2023-02-13T11:00:54;9.70;99.90
15083;DHT22;7640;53.116;6.878;2023-02-13T11:03:28;9.70;99.90
15083;DHT22;7640;53.116;6.878;2023-02-13T11:05:58;9.70;99.90
15083;DHT22;7640;53.116;6.878;2023-02-13T11:08:31;9.80;99.90
15083;DHT22;7640;53.116;6.878;2023-02-13T11:11:01;9.80;99.90
15083;DHT22;7640;53.116;6.878;2023-02-13T11:13:30;9.80;99.90
15083;DHT22;7640;53.116;6.878;2023-02-13T11:16:01;9.80;99.90
15083;DHT22;7640;53.116;6.878;2023-02-13T11:18:33;9.90;99.90
15083;DHT22;7640;53.116;6.878;2023-02-13T11:21:07;9.90;99.90
15083;DHT22;7640;53.116;6.878;2023-02-13T11:23:41;9.90;99.90
15083;DHT22;7640;53.116;6.878;2023-02-13T11:26:13;9.90;99.90
15083;DHT22;7640;53.116;6.878;2023-02-13T11:28:52;9.90;99.90
15083;DHT22;7640;53.116;6.878;2023-02-13T11:31:26;9.90;99.90
15083;DHT22;7640;53.116;6.878;2023-02-13T11:33:58;9.90;99.90
15083;DHT22;7640;53.116;6.878;2023-02-13T11:36:29;9.90;99.90
15083;DHT22;7640;53.116;6.878;2023-02-13T11:39:00;9.90;99.90
15083;DHT22;7640;53.116;6.878;2023-02-13T11:41:30;9.90;99.90
15083;DHT22;7640;53.116;6.878;2023-02-13T11:44:18;10.00;99.90
15083;DHT22;7640;53.116;6.878;2023-02-13T11:46:50;10.00;99.90
15083;DHT22;7640;53.116;6.878;2023-02-13T11:49:23;10.00;99.90
15083;DHT22;7640;53.116;6.878;2023-02-13T11:51:53;10.00;99.90
15083;DHT22;7640;53.116;6.878;2023-02-13T11:54:27;10.10;99.90
15083;DHT22;7640;53.116;6.878;2023-02-13T11:56:59;10.20;99.90
15083;DHT22;7640;53.116;6.878;2023-02-13T11:59:39;10.20;99.90
15083;DHT22;7640;53.116;6.878;2023-02-13T12:02:15;10.30;99.90
15083;DHT22;7640;53.116;6.878;2023-02-13T12:04:48;10.30;99.90
15083;DHT22;7640;53.116;6.878;2023-02-13T12:07:20;10.30;99.90
15083;DHT22;7640;53.116;6.878;2023-02-13T12:09:58;10.40;99.90
15083;DHT22;7640;53.116;6.878;2023-02-13T12:12:33;10.40;99.90
15083;DHT22;7640;53.116;6.878;2023-02-13T12:15:15;10.40;99.90
15083;DHT22;7640;53.116;6.878;2023-02-13T12:17:48;10.40;99.90
15083;DHT22;7640;53.116;6.878;2023-02-13T12:20:26;10.40;99.90
15083;DHT22;7640;53.116;6.878;2023-02-13T12:23:02;10.40;99.90
15083;DHT22;7640;53.116;6.878;2023-02-13T12:26:00;10.50;99.90
15083;DHT22;7640;53.116;6.878;2023-02-13T12:28:59;10.60;99.90
15083;DHT22;7640;53.116;6.878;2023-02-13T12:31:45;10.60;99.90
15083;DHT22;7640;53.116;6.878;2023-02-13T12:34:35;10.50;99.90
15083;DHT22;7640;53.116;6.878;2023-02-13T12:37:45;10.50;99.90
15083;DHT22;7640;53.116;6.878;2023-02-13T12:43:56;10.60;99.90
15083;DHT22;7640;53.116;6.878;2023-02-13T12:46:39;10.70;99.90
15083;DHT22;7640;53.116;6.878;2023-02-13T12:49:28;10.70;99.90
15083;DHT22;7640;53.116;6.878;2023-02-13T12:52:27;10.80;99.90
15083;DHT22;7640;53.116;6.878;2023-02-13T12:55:28;10.80;99.90
15083;DHT22;7640;53.116;6.878;2023-02-13T12:58:30;10.90;99.90
15083;DHT22;7640;53.116;6.878;2023-02-13T13:01:38;10.90;99.90
15083;DHT22;7640;53.116;6.878;2023-02-13T13:04:26;11.00;99.90
15083;DHT22;7640;53.116;6.878;2023-02-13T13:07:29;11.00;99.90
15083;DHT22;7640;53.116;6.878;2023-02-13T13:10:27;11.10;99.90
15083;DHT22;7640;53.116;6.878;2023-02-13T13:13:20;11.10;99.90
15083;DHT22;7640;53.116;6.878;2023-02-13T13:15:57;11.20;99.90
15083;DHT22;7640;53.116;6.878;2023-02-13T13:18:40;11.20;99.90
15083;DHT22;7640;53.116;6.878;2023-02-13T13:21:22;11.30;99.90
15083;DHT22;7640;53.116;6.878;2023-02-13T13:23:59;11.30;99.90
15083;DHT22;7640;53.116;6.878;2023-02-13T13:26:35;11.40;99.90
15083;DHT22;7640;53.116;6.878;2023-02-13T13:29:10;11.40;99.90
15083;DHT22;7640;53.116;6.878;2023-02-13T13:31:44;11.40;99.90
15083;DHT22;7640;53.116;6.878;2023-02-13T13:34:21;11.50;99.90
15083;DHT22;7640;53.116;6.878;2023-02-13T13:36:56;11.50;99.90
15083;DHT22;7640;53.116;6.878;2023-02-13T13:39:35;11.60;99.90
15083;DHT22;7640;53.116;6.878;2023-02-13T13:42:15;11.60;99.90
15083;DHT22;7640;53.116;6.878;2023-02-13T13:47:58;11.70;99.90
15083;DHT22;7640;53.116;6.878;2023-02-13T13:50:35;11.80;99.90
15083;DHT22;7640;53.116;6.878;2023-02-13T13:53:10;11.80;99.90
15083;DHT22;7640;53.116;6.878;2023-02-13T13:56:06;11.90;99.90
15083;DHT22;7640;53.116;6.878;2023-02-13T13:58:39;11.90;99.90
15083;DHT22;7640;53.116;6.878;2023-02-13T14:01:30;11.90;99.90
15083;DHT22;7640;53.116;6.878;2023-02-13T14:03:59;12.00;99.90
15083;DHT22;7640;53.116;6.878;2023-02-13T14:09:43;12.00;99.90
15083;DHT22;7640;53.116;6.878;2023-02-13T14:12:36;12.00;99.90
15083;DHT22;7640;53.116;6.878;2023-02-13T14:15:51;12.00;99.90
15083;DHT22;7640;53.116;6.878;2023-02-13T14:18:21;12.00;99.90
15083;DHT22;7640;53.116;6.878;2023-02-13T14:20:51;12.00;99.90
15083;DHT22;7640;53.116;6.878;2023-02-13T14:23:31;12.10;99.90
15083;DHT22;7640;53.116;6.878;2023-02-13T14:26:30;12.10;99.90
15083;DHT22;7640;53.116;6.878;2023-02-13T14:29:25;12.20;99.90
15083;DHT22;7640;53.116;6.878;2023-02-13T14:32:03;12.20;99.90
15083;DHT22;7640;53.116;6.878;2023-02-13T14:34:36;12.20;99.90
15083;DHT22;7640;53.116;6.878;2023-02-13T14:37:18;12.10;99.90
15083;DHT22;7640;53.116;6.878;2023-02-13T14:40:29;12.00;99.90
15083;DHT22;7640;53.116;6.878;2023-02-13T14:43:34;12.10;99.90
15083;DHT22;7640;53.116;6.878;2023-02-13T14:46:16;12.00;99.90
15083;DHT22;7640;53.116;6.878;2023-02-13T14:48:56;12.00;99.90
15083;DHT22;7640;53.116;6.878;2023-02-13T14:51:31;12.00;99.90
15083;DHT22;7640;53.116;6.878;2023-02-13T14:54:08;11.90;99.90
15083;DHT22;7640;53.116;6.878;2023-02-13T14:56:45;11.90;99.90
15083;DHT22;7640;53.116;6.878;2023-02-13T14:59:19;11.90;99.90
15083;DHT22;7640;53.116;6.878;2023-02-13T15:01:55;11.90;99.90
15083;DHT22;7640;53.116;6.878;2023-02-13T15:04:30;11.90;99.90
15083;DHT22;7640;53.116;6.878;2023-02-13T15:07:04;11.90;99.90
15083;DHT22;7640;53.116;6.878;2023-02-13T15:09:38;11.90;99.90
15083;DHT22;7640;53.116;6.878;2023-02-13T15:12:22;11.80;99.90
15083;DHT22;7640;53.116;6.878;2023-02-13T15:14:52;11.80;99.90
15083;DHT22;7640;53.116;6.878;2023-02-13T15:17:22;11.80;99.90
15083;DHT22;7640;53.116;6.878;2023-02-13T15:20:04;11.80;99.90
15083;DHT22;7640;53.116;6.878;2023-02-13T15:22:39;11.70;99.90
15083;DHT22;7640;53.116;6.878;2023-02-13T15:25:22;11.60;99.90
15083;DHT22;7640;53.116;6.878;2023-02-13T15:27:53;11.60;99.90
15083;DHT22;7640;53.116;6.878;2023-02-13T15:30:24;11.60;99.90
15083;DHT22;7640;53.116;6.878;2023-02-13T15:32:54;11.50;99.90
15083;DHT22;7640;53.116;6.878;2023-02-13T15:35:26;11.50;99.90
15083;DHT22;7640;53.116;6.878;2023-02-13T15:37:57;11.50;99.90
15083;DHT22;7640;53.116;6.878;2023-02-13T15:40:28;11.50;99.90
15083;DHT22;7640;53.116;6.878;2023-02-13T15:42:59;11.50;99.90
15083;DHT22;7640;53.116;6.878;2023-02-13T15:45:28;11.40;99.90
15083;DHT22;7640;53.116;6.878;2023-02-13T15:47:57;11.40;99.90
15083;DHT22;7640;53.116;6.878;2023-02-13T15:50:30;11.40;99.90
15083;DHT22;7640;53.116;6.878;2023-02-13T15:53:03;11.40;99.90
15083;DHT22;7640;53.116;6.878;2023-02-13T15:55:34;11.30;99.90
15083;DHT22;7640;53.116;6.878;2023-02-13T15:58:04;11.30;99.90
15083;DHT22;7640;53.116;6.878;2023-02-13T16:00:36;11.30;99.90
15083;DHT22;7640;53.116;6.878;2023-02-13T16:03:13;11.30;99.90
15083;DHT22;7640;53.116;6.878;2023-02-13T16:05:46;11.30;99.90
15083;DHT22;7640;53.116;6.878;2023-02-13T16:08:27;11.20;99.90
15083;DHT22;7640;53.116;6.878;2023-02-13T16:11:32;11.20;99.90
15083;DHT22;7640;53.116;6.878;2023-02-13T16:14:17;11.20;99.90
15083;DHT22;7640;53.116;6.878;2023-02-13T16:16:50;11.10;99.90
15083;DHT22;7640;53.116;6.878;2023-02-13T16:19:23;11.10;99.90
15083;DHT22;7640;53.116;6.878;2023-02-13T16:25:01;10.90;99.90
15083;DHT22;7640;53.116;6.878;2023-02-13T16:27:33;10.90;99.90
15083;DHT22;7640;53.116;6.878;2023-02-13T16:30:05;10.70;99.90
15083;DHT22;7640;53.116;6.878;2023-02-13T16:32:35;10.70;99.90
15083;DHT22;7640;53.116;6.878;2023-02-13T16:35:24;10.60;99.90
15083;DHT22;7640;53.116;6.878;2023-02-13T16:37:59;10.50;99.90
15083;DHT22;7640;53.116;6.878;2023-02-13T16:40:33;10.40;99.90
15083;DHT22;7640;53.116;6.878;2023-02-13T16:46:33;10.20;99.90
15083;DHT22;7640;53.116;6.878;2023-02-13T16:49:21;10.10;99.90
15083;DHT22;7640;53.116;6.878;2023-02-13T16:51:53;10.10;99.90
15083;DHT22;7640;53.116;6.878;2023-02-13T16:54:28;9.90;99.90
15083;DHT22;7640;53.116;6.878;2023-02-13T16:57:01;9.90;99.90
15083;DHT22;7640;53.116;6.878;2023-02-13T16:59:35;9.90;99.90
15083;DHT22;7640;53.116;6.878;2023-02-13T17:02:15;9.70;99.90
15083;DHT22;7640;53.116;6.878;2023-02-13T17:04:47;9.60;99.90
15083;DHT22;7640;53.116;6.878;2023-02-13T17:07:20;9.50;99.90
15083;DHT22;7640;53.116;6.878;2023-02-13T17:09:57;9.50;99.90
15083;DHT22;7640;53.116;6.878;2023-02-13T17:12:27;9.30;99.90
15083;DHT22;7640;53.116;6.878;2023-02-13T17:14:57;9.20;99.90